Time;durP1;ratioP1;P1;durP2;ratioP2;P2;SDS_P1;SDS_P2;PMS_P1;PMS_P2;Temp;Humidity;BMP_temperature;BMP_pressure;BME280_temperature;BME280_humidity;BME280_pressure;Samples;Min_cycle;Max_cycle;Signal;HPM_P1;HPM_P2
2021/01/25 00:01:04;;;;;;;4.37;1.30;;;-1.70;99.90;;;;;;5002292;28;20110;-75
2021/01/25 00:03:30;;;;;;;2.60;1.20;;;-1.60;99.50;;;;;;4998068;28;20090;-75
2021/01/25 00:05:56;;;;;;;1.57;1.20;;;-1.90;99.90;;;;;;4990580;28;20090;-75
2021/01/25 00:08:21;;;;;;;2.20;1.30;;;-1.70;99.90;;;;;;4991594;28;20161;-75
2021/01/25 00:10:47;;;;;;;2.43;1.20;;;-1.80;99.90;;;;;;4991872;28;20512;-74
2021/01/25 00:13:13;;;;;;;2.63;1.17;;;-2.30;99.90;;;;;;4992408;28;20082;-74
2021/01/25 00:15:38;;;;;;;5.33;1.47;;;-2.60;99.90;;;;;;4990842;28;20128;-75
2021/01/25 00:18:04;;;;;;;3.07;1.20;;;-2.60;99.90;;;;;;4995134;28;20600;-73
2021/01/25 00:20:30;;;;;;;3.13;1.10;;;-2.80;99.90;;;;;;5009936;28;20097;-73
2021/01/25 00:22:55;;;;;;;1.77;1.13;;;-2.50;99.90;;;;;;4992026;28;20399;-74
2021/01/25 00:25:21;;;;;;;1.80;0.90;;;-2.50;99.90;;;;;;4991412;28;20455;-75
2021/01/25 00:27:46;;;;;;;4.07;1.10;;;-2.30;99.90;;;;;;5004188;28;20070;-74
2021/01/25 00:30:16;;;;;;;2.97;1.53;;;-2.70;99.90;;;;;;4994692;28;20074;-74
2021/01/25 00:32:42;;;;;;;2.60;1.13;;;-2.90;99.90;;;;;;4995937;28;20093;-75
2021/01/25 00:35:08;;;;;;;1.67;1.30;;;-2.90;99.90;;;;;;4991120;28;20090;-75
2021/01/25 00:37:34;;;;;;;3.03;1.37;;;-2.60;99.90;;;;;;4997547;28;20168;-73
2021/01/25 00:39:59;;;;;;;2.03;1.03;;;-2.40;99.90;;;;;;4991794;28;21525;-74
2021/01/25 00:42:25;;;;;;;4.23;1.20;;;-2.60;99.90;;;;;;4991699;28;20559;-74
2021/01/25 00:44:50;;;;;;;4.23;1.40;;;-2.90;99.90;;;;;;4991212;28;20114;-73
2021/01/25 00:47:16;;;;;;;1.63;1.33;;;-2.90;99.90;;;;;;4990536;28;20066;-73
2021/01/25 00:49:41;;;;;;;2.57;1.00;;;-3.00;99.90;;;;;;5008074;28;20101;-73
2021/01/25 00:52:07;;;;;;;2.60;1.30;;;-3.00;99.90;;;;;;5012588;28;20075;-74
2021/01/25 00:54:33;;;;;;;3.13;1.43;;;-3.00;99.90;;;;;;5006644;28;20098;-74
2021/01/25 00:56:58;;;;;;;2.43;1.10;;;-2.90;99.90;;;;;;4990811;28;20106;-74
2021/01/25 00:59:24;;;;;;;2.63;1.03;;;-2.90;99.90;;;;;;5002809;28;20070;-74
2021/01/25 01:01:50;;;;;;;2.37;1.47;;;-2.70;99.90;;;;;;5005306;28;20082;-73
2021/01/25 01:04:15;;;;;;;2.17;1.10;;;-2.40;99.90;;;;;;5008960;28;20172;-73
2021/01/25 01:06:41;;;;;;;3.70;1.30;;;-2.70;99.90;;;;;;5001186;28;20121;-73
2021/01/25 01:09:07;;;;;;;1.93;1.10;;;-2.50;99.90;;;;;;4999080;28;20078;-73
2021/01/25 01:11:32;;;;;;;2.20;1.30;;;-2.20;99.90;;;;;;4990575;28;20082;-73
2021/01/25 01:13:58;;;;;;;1.70;1.10;;;-2.40;99.90;;;;;;4991718;28;20075;-73
2021/01/25 01:16:23;;;;;;;3.50;1.40;;;-2.50;99.90;;;;;;5002184;28;20438;-73
2021/01/25 01:18:49;;;;;;;1.93;1.20;;;-2.80;99.90;;;;;;5010038;28;20182;-73
2021/01/25 01:21:14;;;;;;;3.37;1.43;;;-3.00;99.90;;;;;;5011105;28;20067;-74
2021/01/25 01:23:40;;;;;;;5.80;1.50;;;-3.00;99.90;;;;;;5008868;28;20104;-74
2021/01/25 01:26:05;;;;;;;2.90;1.43;;;-3.10;99.90;;;;;;5010240;28;20082;-72
2021/01/25 01:28:31;;;;;;;3.13;1.63;;;-2.90;99.90;;;;;;5010575;28;20077;-73
2021/01/25 01:30:56;;;;;;;1.90;1.23;;;-2.70;99.90;;;;;;5010759;28;20756;-73
2021/01/25 01:33:22;;;;;;;3.20;1.20;;;-2.50;99.90;;;;;;5011210;28;20697;-73
2021/01/25 01:35:48;;;;;;;4.57;1.70;;;-2.60;99.90;;;;;;5009016;28;20856;-73
2021/01/25 01:38:14;;;;;;;3.50;1.43;;;-2.60;99.90;;;;;;5010769;28;20078;-73
2021/01/25 01:40:39;;;;;;;2.53;1.73;;;-2.40;99.90;;;;;;5010876;28;20085;-73
2021/01/25 01:43:05;;;;;;;3.23;1.43;;;-2.20;99.90;;;;;;5010302;28;20090;-75
2021/01/25 01:45:31;;;;;;;1.93;1.13;;;-2.10;99.90;;;;;;5008386;28;20471;-73
2021/01/25 01:47:57;;;;;;;4.90;1.30;;;-2.50;99.90;;;;;;5009043;28;20102;-73
2021/01/25 01:50:23;;;;;;;1.97;1.27;;;-2.20;99.90;;;;;;5008606;28;20109;-73
2021/01/25 01:52:49;;;;;;;3.13;1.20;;;-2.50;99.90;;;;;;5010085;28;20067;-73
2021/01/25 01:55:15;;;;;;;2.40;1.20;;;-2.50;99.90;;;;;;5007514;28;20535;-73
2021/01/25 01:57:41;;;;;;;1.30;1.10;;;-2.40;99.90;;;;;;5010360;28;20082;-73
2021/01/25 02:00:08;;;;;;;3.77;1.53;;;-2.20;99.90;;;;;;5008995;28;20112;-73
2021/01/25 02:02:34;;;;;;;3.47;1.17;;;-2.10;99.90;;;;;;4991574;28;20090;-73
2021/01/25 02:05:00;;;;;;;2.43;1.00;;;-2.00;99.90;;;;;;4989967;28;20078;-73
2021/01/25 02:07:27;;;;;;;2.57;0.93;;;-2.00;99.90;;;;;;4989092;28;20162;-73
2021/01/25 02:09:54;;;;;;;2.53;1.17;;;-1.90;99.90;;;;;;4990611;28;20077;-73
2021/01/25 02:12:20;;;;;;;1.40;1.20;;;-1.50;99.90;;;;;;4992011;28;20079;-73
2021/01/25 02:14:47;;;;;;;2.40;1.00;;;-2.30;99.90;;;;;;4988628;28;20090;-74
2021/01/25 02:17:14;;;;;;;1.53;1.10;;;-2.80;99.90;;;;;;4988927;28;20075;-74
2021/01/25 02:19:52;;;;;;;2.03;1.30;;;-3.00;99.90;;;;;;4990360;28;20438;-74
2021/01/25 02:23:04;;;;;;;2.20;1.10;;;-3.00;99.90;;;;;;5007685;28;20094;-73
2021/01/25 02:25:37;;;;;;;2.37;1.03;;;-2.40;99.90;;;;;;5008262;28;20550;-73
2021/01/25 02:28:04;;;;;;;3.23;1.33;;;-3.00;99.90;;;;;;5009623;28;20077;-73
2021/01/25 02:30:31;;;;;;;1.40;0.90;;;-2.70;99.90;;;;;;5010140;28;20074;-74
2021/01/25 02:32:57;;;;;;;1.20;1.03;;;-2.20;99.90;;;;;;5008251;28;20418;-73
2021/01/25 02:35:24;;;;;;;2.87;1.40;;;-2.00;99.90;;;;;;5008981;28;20101;-73
2021/01/25 02:37:55;;;;;;;2.37;1.33;;;-2.10;99.90;;;;;;5009133;28;20497;-73
2021/01/25 02:40:22;;;;;;;2.33;1.23;;;-2.10;99.90;;;;;;5008712;28;20161;-73
2021/01/25 02:42:50;;;;;;;3.53;1.77;;;-2.40;99.90;;;;;;5007835;28;20109;-73
2021/01/25 02:45:17;;;;;;;5.20;1.27;;;-2.80;99.90;;;;;;4989460;28;20106;-74
2021/01/25 02:47:44;;;;;;;2.10;1.10;;;-2.50;99.90;;;;;;4990103;28;20066;-73
2021/01/25 02:50:10;;;;;;;1.70;1.10;;;-2.30;99.90;;;;;;4990269;28;20106;-73
2021/01/25 02:52:36;;;;;;;1.90;1.00;;;-2.20;99.90;;;;;;4990592;28;20539;-73
2021/01/25 02:55:02;;;;;;;2.47;1.40;;;-2.50;99.90;;;;;;5005314;28;20098;-73
2021/01/25 02:57:30;;;;;;;2.33;1.30;;;-2.40;99.90;;;;;;5009724;28;20169;-74
2021/01/25 02:59:56;;;;;;;2.90;1.80;;;-2.30;99.90;;;;;;5009676;28;20071;-73
2021/01/25 03:02:22;;;;;;;2.73;1.20;;;-2.60;99.90;;;;;;5009650;28;20101;-73
2021/01/25 03:04:48;;;;;;;1.10;1.00;;;-3.20;99.90;;;;;;5007774;28;20090;-73
2021/01/25 03:07:13;;;;;;;2.87;1.27;;;-3.50;99.90;;;;;;5009004;28;20083;-76
2021/01/25 03:09:39;;;;;;;2.93;1.30;;;-3.50;99.90;;;;;;5009389;28;20082;-73
2021/01/25 03:12:05;;;;;;;2.30;1.03;;;-3.00;99.90;;;;;;5009162;28;20109;-73
2021/01/25 03:14:32;;;;;;;2.17;1.17;;;-2.80;99.90;;;;;;5008856;28;20102;-74
2021/01/25 03:16:58;;;;;;;2.97;1.00;;;-2.70;99.90;;;;;;5009364;28;20456;-73
2021/01/25 03:19:25;;;;;;;2.53;1.10;;;-2.50;99.90;;;;;;5009559;28;20075;-74
2021/01/25 03:21:53;;;;;;;2.93;1.27;;;-2.50;99.90;;;;;;5009720;28;20161;-73
2021/01/25 03:24:19;;;;;;;2.47;1.33;;;-2.70;99.90;;;;;;5008687;28;20102;-73
2021/01/25 03:26:45;;;;;;;3.13;1.47;;;-3.10;99.90;;;;;;5008532;28;20078;-74
2021/01/25 03:29:11;;;;;;;2.83;1.40;;;-3.40;99.90;;;;;;5007419;28;20087;-74
2021/01/25 03:31:38;;;;;;;2.87;1.20;;;-3.60;99.90;;;;;;5007552;28;20078;-73
2021/01/25 03:34:04;;;;;;;3.77;1.60;;;-3.60;99.90;;;;;;5008343;28;20070;-74
2021/01/25 03:36:30;;;;;;;2.00;1.30;;;-3.80;99.90;;;;;;5008944;28;20085;-74
2021/01/25 03:38:57;;;;;;;0.93;0.90;;;-3.90;99.90;;;;;;5010304;28;20079;-73
2021/01/25 03:41:23;;;;;;;2.33;1.23;;;-3.70;99.90;;;;;;5012714;28;20088;-75
2021/01/25 03:43:49;;;;;;;2.03;1.20;;;-3.30;99.90;;;;;;5010987;28;20094;-75
2021/01/25 03:46:15;;;;;;;1.83;1.10;;;-3.00;99.90;;;;;;5011915;28;20080;-75
2021/01/25 03:48:40;;;;;;;7.20;1.50;;;-3.10;99.90;;;;;;5012780;28;20075;-75
2021/01/25 03:51:06;;;;;;;2.97;1.20;;;-3.60;99.90;;;;;;5011347;28;20567;-75
2021/01/25 03:53:32;;;;;;;5.27;1.03;;;-3.30;99.90;;;;;;5011285;28;20157;-74
2021/01/25 03:55:58;;;;;;;2.40;1.10;;;-3.60;99.90;;;;;;5009279;28;20200;-74
2021/01/25 03:58:24;;;;;;;2.80;1.30;;;-4.00;99.90;;;;;;5011955;28;20523;-75
2021/01/25 04:00:50;;;;;;;3.00;0.90;;;-4.00;99.90;;;;;;5011921;28;20997;-74
2021/01/25 04:03:16;;;;;;;2.20;1.30;;;-4.30;99.90;;;;;;5012443;28;20098;-73
2021/01/25 04:05:41;;;;;;;1.43;1.03;;;-3.80;99.90;;;;;;5011669;28;20177;-74
2021/01/25 04:08:07;;;;;;;1.50;1.20;;;-3.40;99.90;;;;;;5012335;28;20079;-75
2021/01/25 04:10:32;;;;;;;3.50;0.80;;;-3.30;99.90;;;;;;5012185;28;20527;-75
2021/01/25 04:12:58;;;;;;;2.23;1.13;;;-3.00;99.90;;;;;;5011325;28;20067;-73
2021/01/25 04:15:23;;;;;;;2.13;1.30;;;-3.60;99.90;;;;;;5011250;28;20609;-74
2021/01/25 04:17:49;;;;;;;3.23;1.33;;;-3.70;99.90;;;;;;5010645;28;20101;-75
2021/01/25 04:20:15;;;;;;;3.33;1.30;;;-3.40;99.90;;;;;;5011976;28;20181;-75
2021/01/25 04:22:40;;;;;;;2.03;1.07;;;-3.30;99.90;;;;;;5011019;28;20575;-75
2021/01/25 04:25:07;;;;;;;2.97;1.67;;;-3.50;99.90;;;;;;5011250;28;20086;-74
2021/01/25 04:27:33;;;;;;;1.93;1.23;;;-3.00;99.90;;;;;;5001904;28;20083;-75
2021/01/25 04:29:59;;;;;;;2.33;1.30;;;-3.50;99.90;;;;;;4992041;28;20077;-75
2021/01/25 04:32:25;;;;;;;2.77;1.20;;;-3.60;99.90;;;;;;4991954;28;20153;-74
2021/01/25 04:34:52;;;;;;;1.70;1.37;;;-3.30;99.90;;;;;;4991353;28;20225;-73
2021/01/25 04:37:18;;;;;;;2.93;1.00;;;-3.80;99.90;;;;;;4990646;28;20079;-75
2021/01/25 04:39:43;;;;;;;2.80;1.20;;;-4.20;99.90;;;;;;4991726;28;20090;-75
2021/01/25 04:42:09;;;;;;;1.63;1.20;;;-3.60;99.90;;;;;;4990001;28;20090;-74
2021/01/25 04:44:36;;;;;;;2.43;1.57;;;-3.30;99.90;;;;;;5005586;28;20513;-74
2021/01/25 04:47:02;;;;;;;2.60;1.27;;;-3.60;99.90;;;;;;4991586;28;20079;-75
2021/01/25 04:49:30;;;;;;;1.77;1.13;;;-3.30;99.90;;;;;;4991397;28;20075;-73
2021/01/25 04:51:56;;;;;;;3.10;1.53;;;-3.10;99.90;;;;;;4990278;28;20118;-75
2021/01/25 04:54:22;;;;;;;2.20;1.40;;;-3.40;99.90;;;;;;5001466;28;20415;-75
2021/01/25 04:56:50;;;;;;;3.17;1.60;;;-3.60;99.90;;;;;;4992406;28;20079;-75
2021/01/25 04:59:16;;;;;;;4.23;1.83;;;-3.30;99.90;;;;;;5008445;28;20074;-75
2021/01/25 05:01:42;;;;;;;3.27;1.80;;;-3.10;99.90;;;;;;5010862;28;20439;-74
2021/01/25 05:04:07;;;;;;;2.80;1.67;;;-3.00;99.90;;;;;;5007890;28;20090;-74
2021/01/25 05:06:34;;;;;;;2.80;1.77;;;-2.70;99.90;;;;;;5010537;28;20074;-73
2021/01/25 05:09:00;;;;;;;3.67;1.70;;;-2.80;99.90;;;;;;5010921;28;20200;-75
2021/01/25 05:11:26;;;;;;;1.97;1.53;;;-2.70;99.90;;;;;;5011106;28;20177;-75
2021/01/25 05:14:01;;;;;;;3.03;1.70;;;-2.90;99.90;;;;;;5010304;28;20082;-75
2021/01/25 05:16:29;;;;;;;3.43;1.70;;;-3.50;99.90;;;;;;5010486;28;20100;-75
2021/01/25 05:18:57;;;;;;;5.00;1.90;;;-3.90;99.90;;;;;;5010373;28;20082;-74
2021/01/25 05:21:36;;;;;;;3.17;1.97;;;-4.30;99.90;;;;;;5009302;28;20136;-76
2021/01/25 05:24:06;;;;;;;3.13;1.57;;;-3.80;99.90;;;;;;5008484;28;20181;-75
2021/01/25 05:26:33;;;;;;;2.70;1.70;;;-3.30;99.90;;;;;;5010455;28;20078;-75
2021/01/25 05:28:59;;;;;;;1.83;1.50;;;-3.50;99.90;;;;;;5008727;28;20097;-74
2021/01/25 05:31:26;;;;;;;4.17;1.47;;;-3.70;99.90;;;;;;5009408;28;20554;-75
2021/01/25 05:33:53;;;;;;;2.93;1.50;;;-3.80;99.90;;;;;;5010399;28;20070;-74
2021/01/25 05:36:26;;;;;;;2.47;1.50;;;-3.40;99.90;;;;;;5009465;28;20078;-75
2021/01/25 05:38:53;;;;;;;3.80;2.00;;;-3.20;99.90;;;;;;5010311;28;20078;-73
2021/01/25 05:41:20;;;;;;;2.73;1.63;;;-3.00;99.90;;;;;;5010166;28;20101;-75
2021/01/25 05:43:46;;;;;;;3.00;2.13;;;-2.90;99.90;;;;;;5008178;28;20129;-75
2021/01/25 05:46:14;;;;;;;2.17;1.53;;;-2.60;99.90;;;;;;5009382;28;20419;-74
2021/01/25 05:48:40;;;;;;;1.77;1.20;;;-3.40;99.90;;;;;;5009247;28;20070;-75
2021/01/25 05:51:18;;;;;;;3.37;1.20;;;-4.00;99.90;;;;;;5008363;28;20082;-75
2021/01/25 05:53:46;;;;;;;1.90;1.50;;;-3.70;99.90;;;;;;5007769;28;20105;-73
2021/01/25 05:56:14;;;;;;;1.87;1.40;;;-3.70;99.90;;;;;;5007640;28;20106;-75
2021/01/25 05:58:40;;;;;;;2.10;1.60;;;-3.50;99.90;;;;;;5008575;28;20090;-74
2021/01/25 06:01:08;;;;;;;3.37;1.60;;;-3.40;99.90;;;;;;5008950;28;20081;-74
2021/01/25 06:03:38;;;;;;;4.13;2.17;;;-3.40;99.90;;;;;;5008321;28;20106;-74
2021/01/25 06:06:10;;;;;;;3.33;1.50;;;-3.20;99.90;;;;;;5009166;28;20098;-75
2021/01/25 06:08:51;;;;;;;3.30;1.67;;;-3.40;99.90;;;;;;5009564;28;20078;-75
2021/01/25 06:11:20;;;;;;;3.00;2.10;;;-3.70;99.90;;;;;;5009740;28;20075;-75
2021/01/25 06:13:55;;;;;;;2.17;1.57;;;-4.20;99.90;;;;;;5003983;28;20071;-79
2021/01/25 06:16:22;;;;;;;3.35;1.50;;;-4.20;99.90;;;;;;4998834;28;20136;-72
2021/01/25 06:18:48;;;;;;;3.43;1.90;;;-3.70;99.90;;;;;;4998903;28;20088;-73
2021/01/25 06:21:18;;;;;;;3.60;1.80;;;-3.50;99.90;;;;;;5008260;28;20193;-73
2021/01/25 06:23:45;;;;;;;3.77;1.90;;;-3.30;99.90;;;;;;4993726;28;20106;-74
2021/01/25 06:26:11;;;;;;;6.90;2.73;;;-3.40;99.90;;;;;;4989519;28;20170;-73
2021/01/25 06:28:41;;;;;;;17.23;6.13;;;-3.30;99.90;;;;;;5006035;28;20070;-73
2021/01/25 06:31:07;;;;;;;3.73;2.00;;;-3.10;99.90;;;;;;5009540;28;20511;-73
2021/01/25 06:33:39;;;;;;;2.03;1.57;;;-3.70;99.90;;;;;;5009298;28;20102;-74
2021/01/25 06:36:08;;;;;;;4.17;1.70;;;-3.90;99.90;;;;;;4990363;28;20171;-73
2021/01/25 06:38:35;;;;;;;4.07;1.60;;;-4.00;99.90;;;;;;4988892;28;20469;-73
2021/01/25 06:41:11;;;;;;;4.27;2.20;;;-4.00;99.90;;;;;;4989919;28;20831;-73
2021/01/25 06:43:45;;;;;;;3.03;2.27;;;-4.00;99.90;;;;;;4989879;28;20535;-72
2021/01/25 06:46:19;;;;;;;6.43;2.17;;;-3.70;99.90;;;;;;4989174;28;20163;-74
2021/01/25 06:48:52;;;;;;;3.73;2.47;;;-3.40;99.90;;;;;;5008734;28;20074;-72
2021/01/25 06:51:20;;;;;;;4.00;2.53;;;-3.30;99.90;;;;;;5008404;28;20573;-72
2021/01/25 06:53:50;;;;;;;7.80;3.00;;;-3.10;99.90;;;;;;5007918;28;20113;-73
2021/01/25 06:56:16;;;;;;;7.40;3.43;;;-3.20;99.90;;;;;;5006456;28;20108;-73
2021/01/25 06:58:49;;;;;;;4.43;2.93;;;-3.40;99.90;;;;;;5009059;28;20066;-72
2021/01/25 07:01:20;;;;;;;10.13;4.13;;;-3.30;99.90;;;;;;5009529;28;20694;-72
2021/01/25 07:03:56;;;;;;;11.33;4.67;;;-3.20;99.90;;;;;;5009463;28;20156;-72
2021/01/25 07:06:22;;;;;;;4.13;2.10;;;-3.20;99.90;;;;;;5007024;28;20155;-73
2021/01/25 07:08:55;;;;;;;4.77;2.90;;;-3.70;99.90;;;;;;5009363;28;20681;-72
2021/01/25 07:11:23;;;;;;;3.83;2.17;;;-3.50;99.90;;;;;;5008866;28;20066;-73
2021/01/25 07:13:49;;;;;;;3.07;2.17;;;-3.60;99.90;;;;;;5012325;28;20569;-72
2021/01/25 07:16:16;;;;;;;8.17;2.60;;;-3.60;99.90;;;;;;5009318;28;20173;-74
2021/01/25 07:18:48;;;;;;;5.80;2.87;;;-3.30;99.90;;;;;;5008203;28;20079;-75
2021/01/25 07:21:14;;;;;;;9.50;4.67;;;-3.60;99.90;;;;;;4993135;28;20159;-77
2021/01/25 07:23:42;;;;;;;19.10;5.80;;;-3.40;99.90;;;;;;5012593;28;20109;-76
2021/01/25 07:26:16;;;;;;;19.80;8.13;;;-3.50;99.90;;;;;;5010745;28;20086;-76
2021/01/25 07:28:43;;;;;;;36.00;13.07;;;-3.70;99.90;;;;;;5002967;28;20454;-77
2021/01/25 07:31:10;;;;;;;21.90;9.00;;;-4.10;99.90;;;;;;4992287;28;20275;-73
2021/01/25 07:33:37;;;;;;;31.80;13.97;;;-4.00;99.90;;;;;;4997445;28;20075;-76
2021/01/25 07:36:04;;;;;;;36.23;14.97;;;-3.80;99.90;;;;;;4999757;28;20447;-76
2021/01/25 07:38:29;;;;;;;33.40;14.13;;;-3.50;99.90;;;;;;5012761;28;20102;-74
2021/01/25 07:40:57;;;;;;;35.80;15.77;;;-3.20;99.90;;;;;;5012209;28;20110;-73
2021/01/25 07:43:25;;;;;;;28.50;12.17;;;-3.10;99.90;;;;;;5011696;28;20129;-75
2021/01/25 07:45:51;;;;;;;16.40;8.80;;;-3.20;99.90;;;;;;5010716;28;20086;-73
2021/01/25 07:48:17;;;;;;;21.30;7.47;;;-3.30;99.90;;;;;;5011391;28;20090;-74
2021/01/25 07:50:53;;;;;;;17.87;7.60;;;-3.10;99.90;;;;;;5010859;28;20078;-73
2021/01/25 07:53:19;;;;;;;19.07;8.10;;;-2.90;99.90;;;;;;4998194;28;20090;-73
2021/01/25 07:55:44;;;;;;;10.83;5.70;;;-2.90;99.90;;;;;;5007097;28;20500;-74
2021/01/25 07:58:11;;;;;;;11.53;5.83;;;-2.80;99.90;;;;;;5011811;28;20535;-73
2021/01/25 08:00:40;;;;;;;13.30;6.50;;;-2.60;99.90;;;;;;5009669;28;20086;-72
2021/01/25 08:03:25;;;;;;;17.33;7.80;;;-2.50;99.90;;;;;;5012084;28;20105;-76
2021/01/25 08:05:54;;;;;;;8.63;4.20;;;-2.30;99.90;;;;;;5009247;28;20097;-72
2021/01/25 08:08:21;;;;;;;5.70;3.07;;;-2.50;99.90;;;;;;5010850;28;20082;-71
2021/01/25 08:10:48;;;;;;;16.70;6.10;;;-2.50;99.90;;;;;;5010782;28;20703;-73
2021/01/25 08:13:16;;;;;;;10.97;4.60;;;-2.50;99.90;;;;;;5011249;28;20154;-74
2021/01/25 08:15:59;;;;;;;8.73;3.67;;;-2.40;99.90;;;;;;5010497;28;20554;-73
2021/01/25 08:18:46;;;;;;;11.47;4.20;;;-2.20;99.90;;;;;;5002708;28;20567;-72
2021/01/25 08:21:25;;;;;;;11.97;4.43;;;-2.10;99.90;;;;;;4995871;28;20434;-71
2021/01/25 08:23:54;;;;;;;7.63;3.73;;;-1.90;99.90;;;;;;5009093;28;20701;-73
2021/01/25 08:26:27;;;;;;;5.20;3.43;;;-1.90;99.90;;;;;;5008233;28;20074;-73
2021/01/25 08:28:58;;;;;;;9.90;4.40;;;-1.80;99.90;;;;;;5010240;28;20066;-73
2021/01/25 08:31:37;;;;;;;14.03;4.70;;;-1.80;99.90;;;;;;5010523;28;20371;-73
2021/01/25 08:34:27;;;;;;;10.20;4.50;;;-1.80;99.90;;;;;;5003229;28;20078;-71
2021/01/25 08:37:00;;;;;;;10.27;5.77;;;-1.90;99.90;;;;;;5002519;28;20098;-74
2021/01/25 08:39:34;;;;;;;11.07;6.00;;;-2.10;99.90;;;;;;5004673;28;20085;-74
2021/01/25 08:42:02;;;;;;;10.20;5.03;;;-2.00;99.90;;;;;;4996438;28;20156;-73
2021/01/25 08:44:27;;;;;;;12.33;4.93;;;-1.90;99.90;;;;;;4987519;28;20358;-73
2021/01/25 08:46:53;;;;;;;8.07;4.43;;;-2.10;99.90;;;;;;5005600;28;20141;-74
2021/01/25 08:49:21;;;;;;;8.17;2.97;;;-1.90;99.90;;;;;;4991734;28;20152;-73
2021/01/25 08:52:02;;;;;;;4.57;2.87;;;-1.80;99.90;;;;;;4995074;28;20075;-73
2021/01/25 08:54:30;;;;;;;10.37;4.17;;;-1.80;99.90;;;;;;4996457;28;20129;-72
2021/01/25 08:56:57;;;;;;;3.23;1.70;;;-1.70;99.90;;;;;;5005025;28;20078;-73
2021/01/25 08:59:34;;;;;;;2.03;1.30;;;-1.80;99.90;;;;;;4993008;28;20083;-72
2021/01/25 09:02:15;;;;;;;2.77;1.40;;;-1.90;99.90;;;;;;4990682;28;20083;-73
2021/01/25 09:04:41;;;;;;;3.07;1.53;;;-2.00;99.90;;;;;;5002707;28;20098;-72
2021/01/25 09:07:12;;;;;;;1.27;0.83;;;-1.90;99.90;;;;;;5004522;28;20093;-73
2021/01/25 09:09:38;;;;;;;1.87;0.90;;;-1.90;99.90;;;;;;4993042;28;20079;-73
2021/01/25 09:12:03;;;;;;;0.60;0.50;;;-2.00;99.90;;;;;;4986465;28;20142;-73
2021/01/25 09:14:29;;;;;;;1.17;0.73;;;-1.90;99.90;;;;;;4990648;28;20196;-73
2021/01/25 09:16:54;;;;;;;1.47;0.70;;;-1.90;99.90;;;;;;5002489;28;20485;-73
2021/01/25 09:19:20;;;;;;;1.53;0.60;;;-2.00;99.90;;;;;;4990385;28;20102;-73
2021/01/25 09:21:45;;;;;;;3.23;1.00;;;-1.70;99.90;;;;;;4994170;28;20113;-73
2021/01/25 09:24:11;;;;;;;0.50;0.50;;;-1.80;99.90;;;;;;4996828;28;20094;-72
2021/01/25 09:26:37;;;;;;;2.57;0.90;;;-1.90;99.90;;;;;;4996871;28;20123;-72
2021/01/25 09:29:03;;;;;;;1.23;0.90;;;-2.00;99.90;;;;;;4992664;28;20101;-72
2021/01/25 09:31:29;;;;;;;0.83;0.57;;;-1.90;99.90;;;;;;4990483;28;20083;-71
2021/01/25 09:33:55;;;;;;;1.93;1.57;;;-1.90;99.90;;;;;;5003094;28;20082;-72
2021/01/25 09:36:21;;;;;;;1.60;0.70;;;-1.90;99.90;;;;;;4996748;28;20107;-72
2021/01/25 09:38:47;;;;;;;1.80;1.00;;;-1.80;99.90;;;;;;4990192;28;20161;-72
2021/01/25 09:41:12;;;;;;;2.70;1.10;;;-1.70;99.90;;;;;;4991660;28;20078;-74
2021/01/25 09:43:38;;;;;;;2.67;0.73;;;-1.70;99.90;;;;;;4988631;28;20094;-71
2021/01/25 09:46:04;;;;;;;1.60;0.70;;;-1.80;99.90;;;;;;4995202;28;20770;-72
2021/01/25 09:48:29;;;;;;;1.33;0.90;;;-1.70;99.90;;;;;;5007819;28;20086;-72
2021/01/25 09:50:55;;;;;;;1.57;0.67;;;-1.70;99.90;;;;;;4992873;28;20436;-75
2021/01/25 09:53:21;;;;;;;1.67;0.90;;;-1.60;99.90;;;;;;4989788;28;20083;-72
2021/01/25 09:55:49;;;;;;;1.50;1.00;;;-1.60;99.90;;;;;;4998450;28;20129;-73
2021/01/25 09:58:15;;;;;;;1.67;0.80;;;-1.40;99.90;;;;;;5004225;28;20534;-72
2021/01/25 10:00:41;;;;;;;1.30;0.63;;;-1.50;99.90;;;;;;4998591;28;20075;-73
2021/01/25 10:03:07;;;;;;;1.20;0.70;;;-1.40;99.90;;;;;;5009145;28;20087;-72
2021/01/25 10:05:32;;;;;;;2.40;0.90;;;-1.40;99.90;;;;;;5004645;28;20200;-72
2021/01/25 10:07:58;;;;;;;3.00;1.00;;;-1.30;99.90;;;;;;4998866;28;20157;-73
2021/01/25 10:10:25;;;;;;;1.10;0.70;;;-1.20;99.90;;;;;;5000623;28;20109;-73
2021/01/25 10:12:51;;;;;;;1.47;0.83;;;-1.10;99.90;;;;;;4998508;28;20121;-73
2021/01/25 10:15:17;;;;;;;1.70;0.93;;;-1.10;99.90;;;;;;4995021;28;20118;-72
2021/01/25 10:17:43;;;;;;;0.80;0.60;;;-1.10;99.90;;;;;;4991239;28;20576;-72
2021/01/25 10:20:11;;;;;;;1.13;0.73;;;-1.00;99.90;;;;;;4990098;28;20098;-73
2021/01/25 10:22:37;;;;;;;2.07;1.27;;;-0.80;99.90;;;;;;4995549;28;20094;-73
2021/01/25 10:25:08;;;;;;;1.77;0.90;;;-0.80;99.90;;;;;;5001290;28;20203;-74
2021/01/25 10:27:39;;;;;;;1.47;0.97;;;-0.80;99.90;;;;;;5011214;28;20159;-73
2021/01/25 10:30:09;;;;;;;3.30;0.90;;;-0.80;99.90;;;;;;5002655;28;20079;-75
2021/01/25 10:32:34;;;;;;;5.10;1.67;;;-0.80;99.90;;;;;;4994894;28;20083;-75
2021/01/25 10:35:00;;;;;;;6.07;3.20;;;-0.90;99.90;;;;;;4996975;28;20094;-74
2021/01/25 10:37:26;;;;;;;6.87;4.10;;;-0.90;99.90;;;;;;4992848;28;20079;-73
2021/01/25 10:39:52;;;;;;;11.77;6.57;;;-0.90;99.90;;;;;;5005617;28;20165;-73
2021/01/25 10:42:18;;;;;;;2.00;1.47;;;-1.00;99.90;;;;;;5003341;28;20618;-74
2021/01/25 10:44:43;;;;;;;1.90;1.47;;;-0.90;99.90;;;;;;4995785;28;20613;-74
2021/01/25 10:47:13;;;;;;;1.75;1.00;;;-0.90;99.90;;;;;;4996322;28;20083;-73
2021/01/25 10:49:39;;;;;;;2.42;1.33;;;-0.90;99.90;;;;;;4996921;28;20094;-73
2021/01/25 10:52:04;;;;;;;2.90;1.70;;;-0.90;99.90;;;;;;5001192;28;20511;-74
2021/01/25 10:54:30;;;;;;;1.77;1.20;;;-0.90;99.90;;;;;;5009663;28;20142;-74
2021/01/25 10:56:55;;;;;;;8.52;4.50;;;-0.80;99.90;;;;;;4998494;28;20255;-74
2021/01/25 10:59:21;;;;;;;10.53;5.43;;;-0.70;99.90;;;;;;4997558;28;20597;-75
2021/01/25 11:01:47;;;;;;;5.63;2.90;;;-0.80;99.90;;;;;;4996727;28;20078;-73
2021/01/25 11:04:12;;;;;;;6.18;3.17;;;-0.90;99.90;;;;;;5000663;28;20109;-72
2021/01/25 11:06:38;;;;;;;8.70;4.05;;;-0.80;99.90;;;;;;5001841;28;20075;-72
2021/01/25 11:09:05;;;;;;;9.35;4.95;;;-0.90;99.90;;;;;;4999694;28;20454;-74
2021/01/25 11:11:33;;;;;;;6.17;3.50;;;-0.80;99.90;;;;;;4996073;28;20412;-72
2021/01/25 11:13:59;;;;;;;7.47;4.93;;;-0.80;99.90;;;;;;5001706;28;20079;-72
2021/01/25 11:16:25;;;;;;;4.72;2.20;;;-0.80;99.90;;;;;;5009743;28;20164;-72
2021/01/25 11:18:54;;;;;;;6.53;3.63;;;-0.80;99.90;;;;;;5011466;28;20082;-73
2021/01/25 11:21:25;;;;;;;8.23;4.38;;;-0.80;99.90;;;;;;5000864;28;20075;-73
2021/01/25 11:23:51;;;;;;;5.43;3.00;;;-0.70;99.90;;;;;;5010172;28;20116;-74
2021/01/25 11:26:18;;;;;;;10.90;4.18;;;-0.60;99.90;;;;;;5000390;28;20094;-72
2021/01/25 11:28:45;;;;;;;6.80;3.72;;;-0.60;99.90;;;;;;5005274;28;20078;-73
2021/01/25 11:31:12;;;;;;;7.57;4.23;;;-0.60;99.90;;;;;;5005840;28;20086;-73
2021/01/25 11:33:37;;;;;;;10.32;5.78;;;-0.50;99.90;;;;;;5007806;28;20441;-74
2021/01/25 11:36:04;;;;;;;8.03;4.77;;;-0.40;99.90;;;;;;5013021;28;20098;-75
2021/01/25 11:38:31;;;;;;;8.65;4.30;;;-0.50;99.90;;;;;;5009288;28;20074;-72
2021/01/25 11:40:56;;;;;;;5.63;4.15;;;-0.60;99.90;;;;;;5004416;28;20082;-73
2021/01/25 11:43:22;;;;;;;6.32;4.50;;;-0.50;99.90;;;;;;4994173;28;20090;-73
2021/01/25 11:45:50;;;;;;;5.60;3.93;;;-0.60;99.90;;;;;;5002535;28;20094;-71
2021/01/25 11:48:20;;;;;;;6.90;3.88;;;-0.60;99.90;;;;;;4997607;28;20588;-75
2021/01/25 11:50:48;;;;;;;6.45;4.30;;;-0.60;99.90;;;;;;4998628;28;20078;-75
2021/01/25 11:53:13;;;;;;;7.47;4.10;;;-0.50;99.90;;;;;;5006444;28;20098;-75
2021/01/25 11:55:41;;;;;;;7.35;4.63;;;-0.50;99.90;;;;;;5000427;28;20106;-74
2021/01/25 11:58:10;;;;;;;41.97;12.10;;;-0.60;99.90;;;;;;4994306;28;20083;-74
2021/01/25 12:00:36;;;;;;;67.32;25.40;;;-0.60;99.90;;;;;;4989748;28;20089;-76
2021/01/25 12:03:02;;;;;;;97.50;30.92;;;-0.60;99.90;;;;;;5000541;28;20091;-77
2021/01/25 12:05:28;;;;;;;62.67;21.95;;;-0.70;99.90;;;;;;4995212;28;20559;-76
2021/01/25 12:07:53;;;;;;;49.92;18.30;;;-0.60;99.90;;;;;;4998362;28;20133;-74
2021/01/25 12:10:19;;;;;;;41.42;15.63;;;-0.60;99.90;;;;;;4989261;28;20141;-72
2021/01/25 12:12:48;;;;;;;44.25;15.23;;;-0.50;99.90;;;;;;4996537;28;20090;-73
2021/01/25 12:15:14;;;;;;;20.95;8.98;;;-0.40;99.90;;;;;;4997474;28;20879;-73
2021/01/25 12:17:39;;;;;;;10.68;5.43;;;-0.30;99.90;;;;;;5000933;28;20090;-75
2021/01/25 12:20:06;;;;;;;4.22;2.42;;;-0.40;99.90;;;;;;4998800;28;20173;-73
2021/01/25 12:22:32;;;;;;;6.20;3.28;;;-0.30;99.90;;;;;;5008102;28;20075;-73
2021/01/25 12:24:58;;;;;;;7.65;3.58;;;-0.40;99.90;;;;;;4999563;28;20152;-73
2021/01/25 12:27:23;;;;;;;3.45;2.42;;;-0.30;99.90;;;;;;4999369;28;20113;-74
2021/01/25 12:29:49;;;;;;;3.00;2.15;;;-0.40;99.90;;;;;;4989284;28;20081;-74
2021/01/25 12:32:14;;;;;;;9.60;3.53;;;-0.30;99.90;;;;;;4994220;28;20101;-74
2021/01/25 12:34:42;;;;;;;2.95;2.30;;;-0.30;99.90;;;;;;5008579;28;20757;-73
2021/01/25 12:37:07;;;;;;;6.82;3.55;;;-0.30;99.90;;;;;;4993269;28;20075;-73
2021/01/25 12:39:33;;;;;;;2.42;2.15;;;-0.40;99.90;;;;;;5002321;28;20082;-74
2021/01/25 12:41:58;;;;;;;3.88;2.60;;;-0.40;99.90;;;;;;5005216;28;20085;-74
2021/01/25 12:44:24;;;;;;;3.78;2.67;;;-0.40;99.90;;;;;;4996843;28;20098;-75
2021/01/25 12:46:50;;;;;;;5.70;2.97;;;-0.30;99.90;;;;;;4992359;28;20094;-75